Main page
METAR-TAF:

METAR-TAF

Airports :

Wattisham Flying Station

Wattisham, England

latitude: 52-07N, longitude: 000-58E, elevation: 87 m

Current weather observation

The report was made 22 minutes ago, at 21:50 UTC
Wind 10 kt from the Southwest
Temperature 8°C
Humidity 100%
Pressure 1004 hPa
Visibility 10 km or more

METAR: EGUW 262150Z AUTO 22010KT 9999 BKN007/// SCT017/// 08/08 Q1004

Time: 22:12 (22:12 UTC)


TAF: missing

Weather observations and forecasts of more than 4000 airports (METAR and TAF reports).

The available stations are represented by yellow and red dots on the map.

Hover mouse over dot to see the name of the station.

Then click to see weather observations and forecasts.

To change the map : click on the green buttons with a black cross to zoom in, on the green button with a dash to zoom out, or on the green arrows for adjacent maps.


METAR-TAF: